Time;durP1;ratioP1;P1;durP2;ratioP2;P2;SDS_P1;SDS_P2;PMS_P1;PMS_P2;Temp;Humidity;BMP_temperature;BMP_pressure;BME280_temperature;BME280_humidity;BME280_pressure;Samples;Min_cycle;Max_cycle;Signal;HPM_P1;HPM_P2
2021/03/11 00:00:57;;;;;;;26.08;17.90;;;8.60;99.90;;;;;;10396487;28;20053;-63
2021/03/11 00:06:00;;;;;;;22.95;17.20;;;8.70;99.90;;;;;;10387148;28;20111;-63
2021/03/11 00:11:03;;;;;;;27.17;19.33;;;8.70;99.90;;;;;;10398754;28;20054;-62
2021/03/11 00:16:05;;;;;;;23.77;17.38;;;8.60;99.90;;;;;;10398862;28;20152;-63
2021/03/11 00:21:07;;;;;;;23.85;17.65;;;8.60;99.90;;;;;;10389287;28;20053;-62
2021/03/11 00:26:08;;;;;;;23.83;18.40;;;8.70;99.90;;;;;;10368386;28;20056;-63
2021/03/11 00:31:10;;;;;;;28.65;18.25;;;8.70;99.90;;;;;;10380856;28;20064;-62
2021/03/11 00:36:11;;;;;;;26.45;18.70;;;8.70;99.90;;;;;;10367807;28;20052;-62
2021/03/11 00:41:13;;;;;;;29.05;19.83;;;8.50;99.90;;;;;;10384109;28;20456;-62
2021/03/11 00:46:14;;;;;;;26.33;18.08;;;8.60;99.90;;;;;;10384863;28;20560;-62
2021/03/11 00:51:16;;;;;;;26.50;19.10;;;8.50;99.90;;;;;;10373390;28;20082;-62
2021/03/11 00:56:26;;;;;;;;;;;8.50;99.90;;;;;;10367004;28;20045;-63
2021/03/11 01:01:30;;;;;;;29.20;20.20;;;8.50;99.90;;;;;;10401015;28;19931;-63
2021/03/11 01:06:31;;;;;;;27.40;19.08;;;8.60;99.90;;;;;;10389051;28;20057;-62
2021/03/11 01:11:33;;;;;;;26.75;18.63;;;8.60;99.90;;;;;;10367875;28;20053;-62
2021/03/11 01:16:35;;;;;;;24.67;18.40;;;8.50;99.90;;;;;;10369270;28;20136;-62
2021/03/11 01:21:36;;;;;;;28.15;17.00;;;8.50;99.90;;;;;;10351681;28;20501;-62
2021/03/11 01:26:49;;;;;;;26.15;18.70;;;8.60;99.90;;;;;;10405097;28;20060;-62
2021/03/11 01:31:51;;;;;;;24.27;16.15;;;8.50;99.90;;;;;;10392461;28;20424;-62
2021/03/11 01:36:52;;;;;;;28.55;18.05;;;8.60;99.90;;;;;;10387694;28;20622;-63
2021/03/11 01:41:54;;;;;;;22.67;15.23;;;8.50;99.90;;;;;;10379915;28;20068;-62
2021/03/11 01:46:55;;;;;;;24.00;15.35;;;8.60;99.90;;;;;;10375516;28;20149;-63
2021/03/11 01:51:57;;;;;;;21.08;14.90;;;8.60;99.90;;;;;;10385637;28;20452;-62
2021/03/11 01:57:11;;;;;;;18.65;13.88;;;8.60;99.90;;;;;;10347849;28;20103;-63
2021/03/11 02:02:14;;;;;;;21.15;14.23;;;8.60;99.90;;;;;;10400226;28;20057;-63
2021/03/11 02:07:16;;;;;;;20.77;13.50;;;8.70;99.90;;;;;;10389315;28;20046;-63
2021/03/11 02:12:50;;;;;;;21.30;13.40;;;8.70;99.90;;;;;;10381196;28;20060;-62
2021/03/11 02:18:08;;;;;;;20.85;14.18;;;8.70;99.90;;;;;;10363433;28;20069;-62
2021/03/11 02:23:42;;;;;;;22.15;15.05;;;8.80;99.90;;;;;;10375099;28;20063;-63
2021/03/11 02:29:02;;;;;;;20.70;12.98;;;8.90;99.90;;;;;;10402153;28;20051;-63
2021/03/11 02:34:26;;;;;;;18.45;12.57;;;8.90;99.90;;;;;;10393194;28;20045;-62
2021/03/11 02:39:29;;;;;;;18.27;12.05;;;9.00;99.90;;;;;;10384236;28;20077;-62
2021/03/11 02:44:31;;;;;;;18.63;12.48;;;9.10;99.90;;;;;;10370994;28;20539;-62
2021/03/11 02:49:36;;;;;;;17.45;12.30;;;9.10;99.90;;;;;;10388572;28;20050;-62
2021/03/11 02:54:40;;;;;;;16.70;11.40;;;9.20;99.90;;;;;;10409426;28;20485;-62
2021/03/11 02:59:45;;;;;;;17.27;11.75;;;9.20;99.90;;;;;;10357276;28;20050;-62
2021/03/11 03:04:50;;;;;;;18.08;11.18;;;9.20;99.90;;;;;;10407022;28;20366;-62
2021/03/11 03:09:54;;;;;;;14.73;10.20;;;9.30;99.90;;;;;;10396867;28;20054;-62
2021/03/11 03:14:55;;;;;;;15.38;10.30;;;9.30;99.90;;;;;;10408199;28;20120;-61
2021/03/11 03:19:58;;;;;;;14.25;10.73;;;9.30;99.90;;;;;;10397629;28;20552;-62
2021/03/11 03:24:59;;;;;;;15.10;9.13;;;9.30;99.90;;;;;;10385401;28;20053;-61
2021/03/11 03:30:05;;;;;;;13.23;9.23;;;9.30;99.90;;;;;;10400560;28;20060;-62
2021/03/11 03:35:09;;;;;;;13.98;9.70;;;9.40;99.90;;;;;;10394388;28;20137;-62
2021/03/11 03:40:13;;;;;;;16.80;9.55;;;9.40;99.90;;;;;;10415582;28;20092;-62
2021/03/11 03:45:24;;;;;;;14.40;8.63;;;9.40;99.90;;;;;;10397029;28;20128;-62
2021/03/11 03:50:27;;;;;;;11.25;8.45;;;9.40;99.90;;;;;;10362004;28;20400;-62
2021/03/11 03:55:30;;;;;;;12.88;8.35;;;9.50;99.90;;;;;;10398066;28;20073;-61
2021/03/11 04:00:32;;;;;;;10.57;7.60;;;9.60;99.90;;;;;;10375830;28;20049;-62
2021/03/11 04:05:35;;;;;;;10.75;7.53;;;9.60;99.90;;;;;;10377335;28;20103;-62
2021/03/11 04:10:36;;;;;;;12.15;7.85;;;9.60;99.90;;;;;;10388474;28;20049;-62
2021/03/11 04:15:38;;;;;;;10.88;6.88;;;9.60;99.90;;;;;;10401202;28;20413;-62
2021/03/11 04:20:40;;;;;;;8.40;5.88;;;9.60;99.90;;;;;;10383803;28;20084;-62
2021/03/11 04:25:43;;;;;;;9.32;5.68;;;9.50;99.90;;;;;;10385205;28;20452;-62
2021/03/11 04:30:45;;;;;;;7.68;5.32;;;9.50;99.90;;;;;;10397946;28;20132;-62
2021/03/11 04:35:46;;;;;;;10.65;5.95;;;9.50;99.90;;;;;;10385440;28;20141;-62
2021/03/11 04:40:48;;;;;;;8.82;5.70;;;9.60;99.90;;;;;;10363391;28;20141;-62
2021/03/11 04:45:50;;;;;;;8.38;5.60;;;9.60;99.90;;;;;;10371248;28;20260;-62
2021/03/11 04:50:54;;;;;;;8.30;5.90;;;9.60;99.90;;;;;;10372170;28;20424;-62
2021/03/11 04:55:55;;;;;;;9.85;5.75;;;9.60;99.90;;;;;;10405484;28;20111;-62
2021/03/11 05:00:58;;;;;;;9.27;5.63;;;9.70;99.90;;;;;;10373916;28;20045;-62
2021/03/11 05:06:00;;;;;;;8.85;5.88;;;9.60;99.90;;;;;;10373862;28;20061;-63
2021/03/11 05:11:02;;;;;;;7.95;6.10;;;9.60;99.90;;;;;;10381315;28;20050;-62
2021/03/11 05:16:04;;;;;;;7.53;5.80;;;9.60;99.90;;;;;;10370730;28;20125;-62
2021/03/11 05:21:07;;;;;;;7.57;5.68;;;9.50;99.90;;;;;;10361919;28;20413;-62
2021/03/11 05:26:20;;;;;;;10.63;6.07;;;9.50;99.90;;;;;;10395561;28;20041;-63
2021/03/11 05:31:24;;;;;;;6.95;5.35;;;9.60;99.90;;;;;;10403700;28;20495;-63
2021/03/11 05:36:27;;;;;;;8.25;6.18;;;9.50;99.90;;;;;;10357054;28;20179;-63
2021/03/11 05:41:29;;;;;;;6.65;5.20;;;9.50;99.90;;;;;;10396332;28;20481;-63
2021/03/11 05:46:31;;;;;;;7.05;5.18;;;9.60;99.90;;;;;;10384321;28;20124;-63
2021/03/11 05:51:33;;;;;;;6.78;5.10;;;9.50;99.90;;;;;;10374095;28;20083;-63
2021/03/11 05:56:35;;;;;;;6.30;4.93;;;9.50;99.90;;;;;;10379118;28;20050;-63
2021/03/11 06:01:36;;;;;;;6.25;4.45;;;9.70;99.90;;;;;;10386966;28;20080;-63
2021/03/11 06:06:39;;;;;;;6.10;4.90;;;9.70;99.90;;;;;;10396488;28;20081;-63
2021/03/11 06:11:43;;;;;;;6.97;4.82;;;9.60;99.90;;;;;;10402061;28;20061;-63
2021/03/11 06:16:51;;;;;;;5.88;4.20;;;9.60;99.90;;;;;;10394528;28;20120;-63
2021/03/11 06:21:53;;;;;;;5.70;4.55;;;9.60;99.90;;;;;;10375972;28;20053;-63
2021/03/11 06:26:54;;;;;;;6.25;4.68;;;9.60;99.90;;;;;;10396530;28;20227;-63
2021/03/11 06:31:58;;;;;;;7.05;4.22;;;9.70;99.90;;;;;;10366010;28;20045;-63
2021/03/11 06:36:59;;;;;;;5.97;4.30;;;9.80;99.90;;;;;;10350183;28;20104;-63
2021/03/11 06:42:01;;;;;;;7.00;5.18;;;9.80;99.90;;;;;;10394226;28;20064;-63
2021/03/11 06:47:05;;;;;;;6.57;5.20;;;9.90;99.90;;;;;;10368600;28;20084;-63
2021/03/11 06:52:14;;;;;;;8.25;6.22;;;9.80;99.90;;;;;;10378209;28;20053;-62
2021/03/11 06:57:39;;;;;;;6.72;5.13;;;9.90;99.90;;;;;;10400811;28;20095;-63
2021/03/11 07:02:52;;;;;;;6.10;5.00;;;10.00;99.90;;;;;;10364661;28;20081;-63
2021/03/11 07:08:11;;;;;;;5.63;4.32;;;10.00;99.90;;;;;;10366231;28;20137;-63
2021/03/11 07:13:14;;;;;;;5.50;4.25;;;10.00;99.90;;;;;;10393686;28;20132;-63
2021/03/11 07:18:24;;;;;;;5.43;4.32;;;10.00;99.90;;;;;;10367979;28;20045;-63
2021/03/11 07:23:26;;;;;;;5.18;4.05;;;10.20;99.90;;;;;;10383167;28;20482;-63
2021/03/11 07:28:29;;;;;;;5.00;3.90;;;10.30;99.90;;;;;;10380940;28;20048;-63
2021/03/11 07:33:34;;;;;;;6.07;3.88;;;10.20;99.90;;;;;;10406871;28;20051;-63
2021/03/11 07:38:37;;;;;;;4.60;3.78;;;10.30;99.90;;;;;;10409143;28;20053;-63
2021/03/11 07:43:38;;;;;;;5.38;3.78;;;10.20;99.90;;;;;;10409069;28;20085;-63
2021/03/11 07:48:42;;;;;;;4.47;3.67;;;10.30;99.90;;;;;;10375789;28;20124;-64
2021/03/11 07:53:45;;;;;;;5.18;3.40;;;10.40;99.90;;;;;;10374960;28;20058;-63
2021/03/11 07:58:47;;;;;;;5.63;3.75;;;10.50;99.90;;;;;;10378510;28;20048;-64
2021/03/11 08:03:50;;;;;;;5.10;3.70;;;10.50;99.90;;;;;;10392780;28;20062;-64
2021/03/11 08:08:53;;;;;;;4.88;3.58;;;10.60;99.90;;;;;;10380534;28;20087;-63
2021/03/11 08:14:18;;;;;;;4.63;3.22;;;10.70;99.90;;;;;;10370573;28;20136;-63
2021/03/11 08:19:35;;;;;;;6.60;3.25;;;10.80;99.90;;;;;;10372122;28;20058;-63
2021/03/11 08:24:47;;;;;;;5.43;3.03;;;10.80;99.90;;;;;;10374686;28;20418;-63
2021/03/11 08:29:50;;;;;;;4.65;3.03;;;10.80;99.90;;;;;;10368613;28;20164;-63
2021/03/11 08:34:51;;;;;;;4.20;3.08;;;10.90;99.90;;;;;;10401473;28;20454;-63
2021/03/11 08:39:53;;;;;;;4.43;3.17;;;11.00;99.90;;;;;;10398467;28;20045;-63
2021/03/11 08:44:55;;;;;;;3.55;2.63;;;11.10;99.90;;;;;;10400524;28;20121;-64
2021/03/11 08:49:56;;;;;;;4.43;2.83;;;11.10;99.90;;;;;;10374039;28;20046;-63
2021/03/11 08:55:35;;;;;;;4.28;3.10;;;11.30;99.90;;;;;;10368671;28;20064;-64
2021/03/11 09:00:59;;;;;;;4.82;3.00;;;11.50;99.90;;;;;;10341622;28;20565;-63
2021/03/11 09:11:20;;;;;;;4.03;2.50;;;10.00;99.90;;;;;;10520858;27;802207;-74
2021/03/11 09:16:26;;;;;;;4.03;2.50;;;10.20;99.90;;;;;;10501730;28;101653;-74
2021/03/11 09:21:34;;;;;;;3.63;2.50;;;10.40;99.90;;;;;;10520452;28;20052;-74
2021/03/11 09:26:36;;;;;;;4.18;2.80;;;10.50;99.90;;;;;;10518732;28;20051;-74
2021/03/11 09:31:39;;;;;;;3.45;2.42;;;10.60;99.90;;;;;;10521524;28;20044;-74
2021/03/11 09:41:38;;;;;;;3.58;2.20;;;10.70;99.90;;;;;;10317258;27;20392;-84
2021/03/11 09:49:21;;;;;;;3.42;2.00;;;11.10;99.90;;;;;;10369841;28;20379;-74
2021/03/11 09:54:23;;;;;;;4.30;2.03;;;11.30;99.90;;;;;;10355193;28;20054;-68
2021/03/11 09:59:25;;;;;;;4.35;2.00;;;11.40;99.90;;;;;;10355984;28;20077;-68
2021/03/11 10:04:28;;;;;;;3.80;1.80;;;11.30;99.90;;;;;;10354903;28;20573;-68
2021/03/11 10:09:44;;;;;;;4.35;1.90;;;11.20;99.90;;;;;;10356325;28;20442;-68
2021/03/11 10:14:46;;;;;;;2.85;1.55;;;11.10;99.90;;;;;;10356196;28;20113;-69
2021/03/11 10:19:48;;;;;;;2.45;1.60;;;11.20;99.90;;;;;;10352533;28;20077;-68
2021/03/11 10:24:51;;;;;;;2.97;1.65;;;11.20;99.90;;;;;;10350922;28;20121;-68
2021/03/11 10:29:59;;;;;;;3.13;1.83;;;11.30;99.90;;;;;;10351359;28;20050;-68
2021/03/11 10:35:02;;;;;;;2.30;1.40;;;11.40;99.90;;;;;;10351689;28;20046;-68
2021/03/11 10:40:07;;;;;;;1.98;1.33;;;11.20;99.90;;;;;;10351068;28;20049;-68
2021/03/11 10:45:11;;;;;;;3.38;1.40;;;11.20;99.90;;;;;;10344438;28;20081;-68
2021/03/11 10:50:20;;;;;;;1.83;1.33;;;11.30;99.90;;;;;;10346450;28;20042;-68
2021/03/11 10:55:28;;;;;;;2.65;1.48;;;11.70;99.90;;;;;;10354146;28;20208;-68
2021/03/11 11:00:36;;;;;;;1.95;1.40;;;11.70;99.90;;;;;;10326709;28;20054;-68
2021/03/11 11:05:38;;;;;;;1.77;1.30;;;11.50;99.90;;;;;;10326850;28;20108;-68
2021/03/11 11:10:40;;;;;;;3.25;1.40;;;11.30;99.90;;;;;;10325642;28;20086;-68
2021/03/11 11:15:42;;;;;;;3.50;1.30;;;11.40;99.90;;;;;;10327041;28;20062;-68
2021/03/11 11:20:44;;;;;;;5.68;1.50;;;11.50;99.90;;;;;;10321383;28;20057;-67
2021/03/11 11:25:45;;;;;;;2.47;1.10;;;11.40;99.90;;;;;;10326083;28;20646;-68
2021/03/11 11:30:47;;;;;;;2.55;1.00;;;11.00;99.90;;;;;;10326925;28;20058;-68
2021/03/11 11:35:52;;;;;;;3.42;1.40;;;10.90;99.90;;;;;;10325291;28;20505;-68
2021/03/11 11:40:54;;;;;;;1.85;0.82;;;10.90;99.90;;;;;;10326180;28;20050;-68
2021/03/11 11:45:55;;;;;;;2.80;0.82;;;10.90;99.90;;;;;;10321608;28;20058;-68
2021/03/11 11:50:57;;;;;;;1.30;0.98;;;11.10;99.90;;;;;;10313980;28;20047;-67
2021/03/11 11:55:59;;;;;;;1.83;1.35;;;11.60;99.90;;;;;;10301926;28;20072;-68
2021/03/11 12:01:01;;;;;;;1.60;1.10;;;11.60;99.90;;;;;;10322002;28;20053;-68
2021/03/11 12:06:03;;;;;;;2.47;1.40;;;11.70;99.90;;;;;;10320658;28;20054;-68
2021/03/11 12:11:04;;;;;;;3.35;2.10;;;12.00;99.90;;;;;;10320045;28;20109;-68
2021/03/11 12:16:06;;;;;;;3.30;1.65;;;12.00;99.90;;;;;;10323555;28;20069;-68
2021/03/11 12:21:08;;;;;;;2.65;1.63;;;12.20;99.90;;;;;;10324937;28;20494;-68
2021/03/11 12:26:18;;;;;;;3.30;1.60;;;12.40;99.90;;;;;;10324879;28;20058;-68
2021/03/11 12:31:19;;;;;;;3.25;1.63;;;12.60;99.90;;;;;;10324054;28;20047;-68
2021/03/11 12:36:21;;;;;;;2.60;1.40;;;12.90;99.90;;;;;;10324407;28;20064;-68
2021/03/11 12:41:25;;;;;;;2.67;1.30;;;13.10;99.90;;;;;;10324376;28;20050;-67
2021/03/11 12:46:26;;;;;;;2.72;1.30;;;13.30;99.90;;;;;;10324327;28;20149;-68
2021/03/11 12:51:28;;;;;;;3.38;1.50;;;13.30;99.90;;;;;;10323369;28;20086;-68
2021/03/11 12:56:30;;;;;;;2.55;1.50;;;13.00;99.90;;;;;;10323929;28;20402;-68
2021/03/11 13:01:32;;;;;;;3.90;1.52;;;13.10;99.90;;;;;;10324138;28;20125;-68
2021/03/11 13:06:37;;;;;;;2.92;1.48;;;13.10;99.90;;;;;;10323543;28;20457;-67
2021/03/11 13:11:38;;;;;;;3.15;1.20;;;13.10;99.90;;;;;;10323299;28;20038;-68
2021/03/11 13:16:39;;;;;;;4.60;1.40;;;13.20;99.90;;;;;;10322299;28;20050;-68
2021/03/11 13:21:41;;;;;;;8.60;1.60;;;13.10;99.90;;;;;;10323271;28;20530;-68
2021/03/11 13:26:43;;;;;;;5.03;1.20;;;11.10;99.90;;;;;;10322677;28;20137;-68
2021/03/11 13:31:44;;;;;;;5.03;1.52;;;9.60;99.90;;;;;;10323778;28;20073;-68
2021/03/11 13:36:46;;;;;;;3.60;1.23;;;9.20;99.90;;;;;;10322187;28;20193;-68
2021/03/11 13:41:47;;;;;;;4.55;1.38;;;9.20;99.90;;;;;;10321902;28;20125;-67
2021/03/11 13:46:49;;;;;;;4.22;1.80;;;9.40;99.90;;;;;;10322829;28;20461;-68
2021/03/11 13:51:51;;;;;;;3.10;1.23;;;9.60;99.90;;;;;;10322729;28;20105;-68
2021/03/11 13:56:52;;;;;;;3.10;1.60;;;10.10;99.90;;;;;;10322246;28;20046;-68
2021/03/11 14:01:54;;;;;;;6.13;2.97;;;10.30;99.90;;;;;;10321290;28;20133;-67
2021/03/11 14:06:55;;;;;;;9.30;4.65;;;10.40;99.90;;;;;;10321570;28;20082;-68
2021/03/11 14:11:59;;;;;;;4.32;1.48;;;10.40;99.90;;;;;;10322236;28;20042;-68
2021/03/11 14:17:01;;;;;;;7.57;3.58;;;10.20;99.90;;;;;;10322203;28;20718;-68
2021/03/11 14:22:03;;;;;;;4.10;1.70;;;10.00;99.90;;;;;;10321860;28;20054;-67
2021/03/11 14:27:06;;;;;;;2.97;1.20;;;9.90;99.90;;;;;;10308776;28;20061;-67
2021/03/11 14:32:07;;;;;;;3.83;1.40;;;9.80;99.90;;;;;;10346276;28;20046;-68
2021/03/11 14:37:09;;;;;;;4.13;1.35;;;9.70;99.90;;;;;;10322525;28;20761;-68
2021/03/11 14:42:11;;;;;;;5.35;1.58;;;9.60;99.90;;;;;;10324857;28;20573;-69
2021/03/11 14:47:16;;;;;;;5.35;1.42;;;9.60;99.90;;;;;;10325599;28;20141;-66
2021/03/11 14:52:17;;;;;;;6.90;1.77;;;9.80;99.90;;;;;;10325598;28;20053;-66
2021/03/11 14:57:19;;;;;;;6.75;1.80;;;10.20;99.90;;;;;;10323435;28;20061;-67
2021/03/11 15:02:20;;;;;;;8.05;1.80;;;10.50;99.90;;;;;;10323508;28;20486;-66
2021/03/11 15:07:22;;;;;;;7.35;1.77;;;10.70;99.90;;;;;;10324494;28;20057;-66
2021/03/11 15:12:27;;;;;;;6.43;1.67;;;10.80;99.90;;;;;;10323885;28;20129;-66
2021/03/11 15:17:28;;;;;;;5.90;2.00;;;10.90;99.90;;;;;;10324498;28;20141;-66
2021/03/11 15:22:30;;;;;;;8.48;1.73;;;11.00;99.90;;;;;;10324860;28;20648;-66
2021/03/11 15:27:35;;;;;;;7.15;2.22;;;11.20;99.90;;;;;;10311288;28;20116;-66
2021/03/11 15:32:36;;;;;;;8.95;1.98;;;11.30;99.90;;;;;;10323402;28;20054;-66
2021/03/11 15:37:41;;;;;;;8.57;1.92;;;11.40;99.90;;;;;;10323648;28;20050;-66
2021/03/11 15:42:43;;;;;;;8.38;2.15;;;11.50;99.90;;;;;;10323948;28;20046;-66
2021/03/11 15:47:44;;;;;;;9.75;2.58;;;11.30;99.90;;;;;;10322041;28;20066;-66
2021/03/11 15:52:46;;;;;;;7.80;2.17;;;11.00;99.90;;;;;;10323913;28;20062;-66
2021/03/11 15:57:48;;;;;;;9.38;2.60;;;10.80;99.90;;;;;;10323499;28;20142;-66
2021/03/11 16:02:49;;;;;;;11.10;2.40;;;11.00;99.90;;;;;;10320624;28;20060;-66
2021/03/11 16:08:02;;;;;;;10.65;3.35;;;11.10;99.90;;;;;;10322455;28;20046;-66
2021/03/11 16:13:04;;;;;;;11.48;2.60;;;11.10;99.90;;;;;;10322302;28;20070;-66
2021/03/11 16:18:07;;;;;;;9.02;2.35;;;11.10;99.90;;;;;;10322418;28;20133;-66
2021/03/11 16:23:09;;;;;;;10.35;2.33;;;11.10;99.90;;;;;;10322139;28;20050;-66
2021/03/11 16:28:11;;;;;;;9.55;2.28;;;11.10;99.90;;;;;;10308607;28;20053;-66
2021/03/11 16:33:14;;;;;;;7.97;2.13;;;10.80;99.90;;;;;;10321449;28;20064;-66
2021/03/11 16:38:26;;;;;;;7.18;2.03;;;10.70;99.90;;;;;;10318303;28;20089;-66
2021/03/11 16:43:28;;;;;;;6.82;2.30;;;10.40;99.90;;;;;;10306894;28;20065;-66
2021/03/11 16:48:29;;;;;;;5.18;1.80;;;10.30;99.90;;;;;;10320375;28;20394;-66
2021/03/11 16:53:30;;;;;;;5.47;1.50;;;10.20;99.90;;;;;;10320740;28;20552;-66
2021/03/11 16:58:32;;;;;;;7.40;1.88;;;9.90;99.90;;;;;;10318507;28;20055;-66
2021/03/11 17:03:34;;;;;;;5.32;1.48;;;9.80;99.90;;;;;;10319221;28;20050;-66
2021/03/11 17:08:50;;;;;;;4.75;1.60;;;9.60;99.90;;;;;;10322132;28;20056;-66
2021/03/11 17:13:52;;;;;;;4.00;1.33;;;9.50;99.90;;;;;;10321162;28;20062;-66
2021/03/11 17:18:53;;;;;;;6.30;1.77;;;9.40;99.90;;;;;;10316702;28;20129;-66
2021/03/11 17:23:56;;;;;;;5.70;1.80;;;9.30;99.90;;;;;;10319633;28;20107;-66
2021/03/11 17:28:57;;;;;;;6.28;1.80;;;9.20;99.90;;;;;;10310373;28;20137;-66
2021/03/11 17:33:59;;;;;;;6.88;2.22;;;9.20;99.90;;;;;;10320856;28;20054;-66
2021/03/11 17:39:13;;;;;;;6.00;1.65;;;9.20;99.90;;;;;;10316699;28;20531;-66
2021/03/11 17:44:18;;;;;;;7.47;2.10;;;9.30;99.90;;;;;;10315716;28;20137;-66
2021/03/11 17:49:20;;;;;;;6.05;1.80;;;9.30;99.90;;;;;;10314847;28;20054;-67
2021/03/11 17:54:22;;;;;;;4.20;1.60;;;9.40;99.90;;;;;;10320288;28;20088;-67
2021/03/11 17:59:23;;;;;;;5.28;1.90;;;9.40;99.90;;;;;;10319910;28;20130;-66
2021/03/11 18:04:25;;;;;;;7.00;1.60;;;9.50;99.90;;;;;;10319709;28;20046;-66
2021/03/11 18:09:35;;;;;;;3.35;1.38;;;9.20;99.90;;;;;;10320490;28;20387;-66
2021/03/11 18:14:37;;;;;;;2.95;1.20;;;9.10;99.90;;;;;;10326564;28;20421;-66
2021/03/11 18:19:38;;;;;;;4.28;1.30;;;9.00;99.90;;;;;;10327204;28;20406;-67
2021/03/11 18:24:40;;;;;;;5.97;1.30;;;9.00;99.90;;;;;;10319245;28;20062;-66
2021/03/11 18:29:41;;;;;;;5.57;1.42;;;8.90;99.90;;;;;;10321430;28;20049;-66
2021/03/11 18:34:43;;;;;;;3.13;1.33;;;8.90;99.90;;;;;;10324959;28;20085;-66
2021/03/11 18:39:56;;;;;;;7.40;3.17;;;8.90;99.90;;;;;;10325510;28;20512;-74
2021/03/11 18:44:58;;;;;;;6.63;3.33;;;8.90;99.90;;;;;;10325809;28;20057;-73
2021/03/11 18:49:59;;;;;;;3.72;0.90;;;8.80;99.90;;;;;;10326203;28;20142;-73
2021/03/11 18:55:01;;;;;;;5.75;1.50;;;8.60;99.90;;;;;;10325703;28;20080;-73
2021/03/11 19:00:35;;;;;;;4.22;1.45;;;8.40;99.90;;;;;;10323549;28;20286;-73
2021/03/11 19:05:39;;;;;;;3.65;1.50;;;8.30;99.90;;;;;;10317523;28;20160;-72
2021/03/11 19:10:41;;;;;;;3.92;1.30;;;8.20;99.90;;;;;;10322724;28;20050;-73
2021/03/11 19:15:42;;;;;;;6.20;2.30;;;8.10;99.90;;;;;;10322908;28;20141;-73
2021/03/11 19:20:44;;;;;;;3.80;1.40;;;8.10;99.90;;;;;;10324412;28;20077;-73
2021/03/11 19:25:45;;;;;;;4.43;1.38;;;8.10;99.90;;;;;;10324241;28;20545;-72
2021/03/11 19:30:47;;;;;;;3.88;1.50;;;8.10;99.90;;;;;;10318578;28;20533;-73
2021/03/11 19:35:49;;;;;;;3.95;1.48;;;8.00;99.90;;;;;;10349721;28;20046;-73
2021/03/11 19:40:51;;;;;;;6.85;1.75;;;7.90;99.90;;;;;;10323974;28;20458;-73
2021/03/11 19:45:54;;;;;;;5.00;1.90;;;7.90;99.90;;;;;;10324639;28;20495;-72
2021/03/11 19:50:56;;;;;;;7.95;1.60;;;7.90;99.90;;;;;;10303726;28;20133;-73
2021/03/11 19:55:58;;;;;;;4.95;1.45;;;7.90;99.90;;;;;;10314758;28;20086;-73
2021/03/11 20:00:59;;;;;;;7.65;1.90;;;7.90;99.90;;;;;;10349017;28;20054;-74
2021/03/11 20:06:01;;;;;;;6.30;2.20;;;7.80;99.90;;;;;;10323718;28;20141;-74
2021/03/11 20:11:07;;;;;;;6.43;1.90;;;7.80;99.90;;;;;;10324427;28;20054;-75
2021/03/11 20:16:09;;;;;;;5.82;1.85;;;7.80;99.90;;;;;;10323665;28;20502;-75
2021/03/11 20:21:11;;;;;;;5.78;1.60;;;7.70;99.90;;;;;;10322447;28;20057;-74
2021/03/11 20:26:14;;;;;;;8.23;2.35;;;7.70;99.90;;;;;;10292067;28;20108;-74
2021/03/11 20:31:16;;;;;;;5.57;1.67;;;7.70;99.90;;;;;;10322733;28;20078;-74
2021/03/11 20:36:17;;;;;;;6.88;1.60;;;7.70;99.90;;;;;;10311836;28;20089;-74
2021/03/11 20:41:37;;;;;;;6.93;2.28;;;7.70;99.90;;;;;;10321362;28;20050;-74
2021/03/11 20:46:42;;;;;;;8.18;2.30;;;7.70;99.90;;;;;;10321402;28;20062;-74
2021/03/11 20:51:45;;;;;;;9.60;1.60;;;7.80;99.90;;;;;;10322287;28;20095;-74
2021/03/11 20:56:46;;;;;;;4.97;1.50;;;8.00;99.90;;;;;;10322542;28;20054;-74
2021/03/11 21:01:48;;;;;;;6.85;1.70;;;7.90;99.90;;;;;;10328164;28;20133;-74
2021/03/11 21:06:50;;;;;;;9.07;1.75;;;7.90;99.90;;;;;;10323449;28;20073;-74
2021/03/11 21:12:03;;;;;;;6.20;1.77;;;7.90;99.90;;;;;;10323192;28;20053;-74
2021/03/11 21:17:04;;;;;;;5.97;1.75;;;7.90;99.90;;;;;;10322632;28;20157;-74
2021/03/11 21:22:06;;;;;;;6.57;1.65;;;7.80;99.90;;;;;;10321396;28;20128;-74
2021/03/11 21:27:08;;;;;;;5.78;1.88;;;7.70;99.90;;;;;;10322743;28;20054;-74
2021/03/11 21:32:10;;;;;;;10.48;1.77;;;7.60;99.90;;;;;;10321781;28;20050;-74
2021/03/11 21:37:12;;;;;;;5.93;2.15;;;7.50;99.90;;;;;;10322923;28;20046;-74
2021/03/11 21:42:25;;;;;;;5.70;1.65;;;7.50;99.90;;;;;;10321156;28;20391;-74
2021/03/11 21:47:27;;;;;;;7.68;2.05;;;7.60;99.90;;;;;;10321334;28;20077;-75
2021/03/11 21:52:29;;;;;;;6.10;1.70;;;7.60;99.90;;;;;;10321655;28;20046;-74
2021/03/11 21:57:32;;;;;;;8.02;2.58;;;7.60;99.90;;;;;;10322219;28;20047;-74
2021/03/11 22:02:33;;;;;;;9.80;1.90;;;7.50;99.90;;;;;;10320415;28;20490;-74
2021/03/11 22:07:36;;;;;;;7.88;1.83;;;7.40;99.90;;;;;;10321591;28;20101;-74
2021/03/11 22:12:47;;;;;;;7.35;1.90;;;7.40;99.90;;;;;;10322013;28;20275;-74
2021/03/11 22:17:51;;;;;;;7.13;1.77;;;7.50;99.90;;;;;;10319879;28;20109;-74
2021/03/11 22:22:53;;;;;;;8.52;2.30;;;7.60;99.90;;;;;;10321851;28;20055;-73
2021/03/11 22:27:55;;;;;;;6.80;2.00;;;7.70;99.90;;;;;;10320768;28;20498;-74
2021/03/11 22:32:57;;;;;;;10.68;1.83;;;7.80;99.90;;;;;;10320726;28;20062;-73
2021/03/11 22:37:59;;;;;;;9.18;1.95;;;7.80;99.90;;;;;;10321703;28;20082;-74
2021/03/11 22:43:14;;;;;;;5.13;1.42;;;7.40;99.90;;;;;;10348011;28;20044;-74
2021/03/11 22:48:17;;;;;;;8.10;1.60;;;6.90;99.90;;;;;;10320587;28;20090;-74
2021/03/11 22:53:19;;;;;;;4.38;1.42;;;6.80;99.90;;;;;;10341655;28;20402;-74
2021/03/11 22:58:21;;;;;;;4.60;1.20;;;6.70;99.90;;;;;;10324709;28;20054;-74
2021/03/11 23:03:22;;;;;;;3.80;1.30;;;6.60;99.90;;;;;;10326377;28;20129;-75
2021/03/11 23:08:25;;;;;;;5.47;1.35;;;6.40;99.90;;;;;;10324786;28;20134;-74
2021/03/11 23:13:33;;;;;;;3.95;1.33;;;6.30;99.90;;;;;;10322102;28;20050;-74
2021/03/11 23:18:35;;;;;;;3.33;1.40;;;6.30;99.90;;;;;;10322799;28;20058;-75
2021/03/11 23:23:44;;;;;;;3.38;1.02;;;6.10;99.90;;;;;;10325108;28;20056;-74
2021/03/11 23:28:47;;;;;;;6.07;1.23;;;6.00;99.90;;;;;;10325342;28;20577;-75
2021/03/11 23:33:49;;;;;;;5.57;1.30;;;5.90;99.90;;;;;;10325935;28;20202;-75
2021/03/11 23:38:50;;;;;;;3.72;1.20;;;5.90;99.90;;;;;;10324778;28;20507;-74
2021/03/11 23:43:56;;;;;;;4.28;1.25;;;5.90;99.90;;;;;;10324085;28;20057;-74
2021/03/11 23:48:58;;;;;;;7.90;1.30;;;5.80;99.90;;;;;;10323173;28;20485;-74
2021/03/11 23:53:59;;;;;;;4.50;1.30;;;5.90;99.90;;;;;;10324074;28;20073;-74
2021/03/11 23:59:01;;;;;;;3.20;1.10;;;5.90;99.90;;;;;;10321434;28;20133;-74
